Time;durP1;ratioP1;P1;durP2;ratioP2;P2;SDS_P1;SDS_P2;PMS_P1;PMS_P2;Temp;Humidity;BMP_temperature;BMP_pressure;BME280_temperature;BME280_humidity;BME280_pressure;Samples;Min_cycle;Max_cycle;Signal;HPM_P1;HPM_P2
2021/04/21 00:01:09;;;;;;;2.13;1.83;;;18.90;44.60;;;;;;5135392;27;20046;-38
2021/04/21 00:03:37;;;;;;;2.00;1.80;;;18.80;44.40;;;;;;5134513;27;20040;-38
2021/04/21 00:06:07;;;;;;;2.22;1.80;;;18.80;44.50;;;;;;5135498;27;20043;-38
2021/04/21 00:08:36;;;;;;;2.13;1.80;;;18.80;44.40;;;;;;5133701;27;20043;-38
2021/04/21 00:11:04;;;;;;;1.92;1.73;;;18.90;44.60;;;;;;5132747;27;20039;-38
2021/04/21 00:13:32;;;;;;;2.15;1.95;;;18.80;45.10;;;;;;5133902;27;20051;-38
2021/04/21 00:15:59;;;;;;;2.65;1.92;;;18.80;44.40;;;;;;5135174;27;20092;-39
2021/04/21 00:18:27;;;;;;;2.17;1.70;;;18.80;44.40;;;;;;5135289;27;20069;-39
2021/04/21 00:21:00;;;;;;;2.78;2.10;;;18.80;44.40;;;;;;5115748;27;20052;-38
2021/04/21 00:23:32;;;;;;;1.83;1.55;;;18.80;44.40;;;;;;5133195;27;20051;-38
2021/04/21 00:26:00;;;;;;;2.33;2.00;;;18.80;44.40;;;;;;5133682;27;20043;-38
2021/04/21 00:28:33;;;;;;;2.35;1.83;;;18.80;44.40;;;;;;5133359;27;20473;-38
2021/04/21 00:31:04;;;;;;;1.92;1.63;;;18.80;44.40;;;;;;5134927;27;20087;-38
2021/04/21 00:33:33;;;;;;;2.65;1.90;;;18.80;44.40;;;;;;5116719;27;20137;-38
2021/04/21 00:36:02;;;;;;;2.10;1.77;;;18.80;44.40;;;;;;5128682;27;20039;-38
2021/04/21 00:38:30;;;;;;;2.25;1.73;;;18.80;44.40;;;;;;5118252;27;20101;-38
2021/04/21 00:41:26;;;;;;;2.20;1.75;;;18.80;44.50;;;;;;5116732;27;20403;-38
2021/04/21 00:43:58;;;;;;;2.22;1.80;;;18.80;44.40;;;;;;5130157;27;20090;-38
2021/04/21 00:46:39;;;;;;;2.50;1.98;;;18.80;44.40;;;;;;5134890;27;20047;-38
2021/04/21 00:49:46;;;;;;;2.20;1.80;;;18.80;44.40;;;;;;5133460;27;20379;-38
2021/04/21 00:52:19;;;;;;;2.20;1.70;;;18.90;44.50;;;;;;5119685;27;20077;-37
2021/04/21 00:55:00;;;;;;;2.80;1.85;;;18.80;44.40;;;;;;5130422;27;20083;-38
2021/04/21 00:57:48;;;;;;;1.77;1.65;;;18.80;44.40;;;;;;5133036;27;20511;-38
2021/04/21 01:00:18;;;;;;;2.33;2.10;;;18.80;44.40;;;;;;5134158;27;20126;-38
2021/04/21 01:02:58;;;;;;;2.10;1.80;;;18.90;44.50;;;;;;5130938;27;20484;-39
2021/04/21 01:05:29;;;;;;;2.10;1.75;;;18.80;44.40;;;;;;5131757;27;20065;-38
2021/04/21 01:08:02;;;;;;;2.42;1.85;;;18.80;44.40;;;;;;5131799;27;20403;-38
2021/04/21 01:10:33;;;;;;;2.30;2.00;;;18.80;44.40;;;;;;5134218;27;20113;-38
2021/04/21 01:13:01;;;;;;;2.15;1.80;;;18.80;44.40;;;;;;5131513;27;20092;-38
2021/04/21 01:15:28;;;;;;;2.17;1.90;;;18.80;44.50;;;;;;5130030;27;20051;-38
2021/04/21 01:17:57;;;;;;;2.03;1.80;;;18.80;44.50;;;;;;5134004;27;20470;-39
2021/04/21 01:20:34;;;;;;;2.17;1.83;;;18.80;44.40;;;;;;5114235;27;20537;-38
2021/04/21 01:23:39;;;;;;;1.75;1.52;;;18.80;44.40;;;;;;5132331;27;20040;-38
2021/04/21 01:26:45;;;;;;;2.50;1.88;;;18.80;44.40;;;;;;5095168;27;20477;-38
2021/04/21 01:29:17;;;;;;;2.05;1.60;;;18.80;44.40;;;;;;5133659;27;20047;-39
2021/04/21 01:31:47;;;;;;;2.58;1.80;;;18.80;44.40;;;;;;5123091;27;20540;-39
2021/04/21 01:34:19;;;;;;;2.08;1.70;;;18.80;44.40;;;;;;5105638;28;20451;-38
2021/04/21 01:36:47;;;;;;;2.72;1.83;;;18.80;44.50;;;;;;5122412;27;20077;-38
2021/04/21 01:39:17;;;;;;;2.38;1.77;;;18.80;44.40;;;;;;5117018;27;20078;-39
2021/04/21 01:41:49;;;;;;;1.85;1.58;;;18.80;44.40;;;;;;5116560;27;20130;-38
2021/04/21 01:44:22;;;;;;;2.13;1.92;;;18.80;44.40;;;;;;5114052;27;20043;-38
2021/04/21 01:47:04;;;;;;;2.13;1.92;;;18.80;44.40;;;;;;5121788;27;20096;-38
2021/04/21 01:49:37;;;;;;;2.28;1.80;;;18.80;44.40;;;;;;5132142;27;20051;-39
2021/04/21 01:52:29;;;;;;;2.13;1.80;;;18.80;44.50;;;;;;5130883;27;20062;-39
2021/04/21 01:55:02;;;;;;;2.05;1.85;;;18.80;44.50;;;;;;5028803;28;20192;-38
2021/04/21 01:57:44;;;;;;;2.10;1.90;;;18.80;44.40;;;;;;5029821;28;20519;-38
2021/04/21 02:00:31;;;;;;;2.17;1.70;;;18.80;44.40;;;;;;5017928;28;20050;-39
2021/04/21 02:03:13;;;;;;;2.17;1.85;;;18.80;44.40;;;;;;5026304;28;20049;-38
2021/04/21 02:06:25;;;;;;;2.15;1.77;;;18.80;44.40;;;;;;5029224;28;20561;-38
2021/04/21 02:09:36;;;;;;;2.50;1.92;;;18.80;44.40;;;;;;5028585;28;20160;-38
2021/04/21 02:12:33;;;;;;;2.40;1.77;;;18.80;44.40;;;;;;5016527;28;20533;-38
2021/04/21 02:15:33;;;;;;;2.05;1.65;;;18.80;44.40;;;;;;5028235;28;20462;-38
2021/04/21 02:18:16;;;;;;;2.40;2.00;;;18.80;44.40;;;;;;5027414;28;20077;-38
2021/04/21 02:20:57;;;;;;;2.35;2.03;;;18.80;44.40;;;;;;5015798;28;20077;-38
2021/04/21 02:23:39;;;;;;;2.05;1.85;;;18.80;45.10;;;;;;5011250;28;20077;-38
2021/04/21 02:26:25;;;;;;;2.40;1.90;;;18.80;44.40;;;;;;5012367;28;20054;-38
2021/04/21 02:29:04;;;;;;;2.53;2.10;;;18.80;44.40;;;;;;5027521;28;20119;-38
2021/04/21 02:32:06;;;;;;;2.00;1.80;;;18.80;44.40;;;;;;5054981;28;20127;-39
2021/04/21 02:34:58;;;;;;;3.25;1.80;;;18.80;44.40;;;;;;5031820;28;20124;-38
2021/04/21 02:37:36;;;;;;;2.25;2.05;;;18.80;44.40;;;;;;5033561;28;20114;-38
2021/04/21 02:40:38;;;;;;;2.05;1.85;;;18.80;45.10;;;;;;5048340;28;20041;-38
2021/04/21 02:43:25;;;;;;;2.28;1.85;;;18.80;44.40;;;;;;5043323;28;20091;-38
2021/04/21 02:46:09;;;;;;;2.63;2.05;;;18.80;44.40;;;;;;5039753;28;20495;-38
2021/04/21 02:48:54;;;;;;;1.90;1.70;;;18.80;44.40;;;;;;5039958;28;20073;-38
2021/04/21 02:51:33;;;;;;;2.17;1.75;;;18.80;44.40;;;;;;5043897;28;20049;-38
2021/04/21 02:54:35;;;;;;;2.00;1.83;;;18.80;44.40;;;;;;5036830;28;20049;-38
2021/04/21 02:57:16;;;;;;;3.00;1.90;;;18.80;44.40;;;;;;5031762;28;20528;-38
2021/04/21 02:59:50;;;;;;;2.10;1.90;;;18.80;44.40;;;;;;5031670;28;20045;-38
2021/04/21 03:02:35;;;;;;;;;;;18.80;44.40;;;;;;5048650;28;20106;-38
2021/04/21 03:05:16;;;;;;;2.03;1.83;;;18.80;44.40;;;;;;5048473;28;19954;-38
2021/04/21 03:07:49;;;;;;;2.25;2.00;;;18.80;44.40;;;;;;5059297;28;20139;-38
2021/04/21 03:10:18;;;;;;;2.10;1.90;;;18.80;44.40;;;;;;5131185;28;20055;-38
2021/04/21 03:12:56;;;;;;;2.20;1.92;;;18.80;44.40;;;;;;5129938;28;20088;-38
2021/04/21 03:15:26;;;;;;;2.20;2.00;;;18.80;44.50;;;;;;5130742;28;20051;-39
2021/04/21 03:17:55;;;;;;;2.70;1.90;;;18.80;44.40;;;;;;5116997;28;20052;-38
2021/04/21 03:20:24;;;;;;;2.15;1.80;;;18.80;44.40;;;;;;5118627;27;20075;-39
2021/04/21 03:22:56;;;;;;;2.15;1.83;;;18.80;44.40;;;;;;5133928;27;20047;-38
2021/04/21 03:25:37;;;;;;;1.75;1.55;;;18.80;44.40;;;;;;5118262;27;20116;-38
2021/04/21 03:28:09;;;;;;;1.95;1.60;;;18.80;44.40;;;;;;5133819;27;20129;-38
2021/04/21 03:30:37;;;;;;;2.50;2.00;;;18.80;44.40;;;;;;5135526;27;20445;-38
2021/04/21 03:33:10;;;;;;;2.33;2.00;;;18.80;44.40;;;;;;5132198;27;20071;-39
2021/04/21 03:35:38;;;;;;;2.10;1.88;;;18.80;44.40;;;;;;5127434;27;20043;-38
2021/04/21 03:38:08;;;;;;;1.80;1.45;;;18.80;44.40;;;;;;5133577;27;20573;-38
2021/04/21 03:40:36;;;;;;;2.33;1.98;;;18.80;44.40;;;;;;5132072;27;20043;-38
2021/04/21 03:43:04;;;;;;;2.47;1.98;;;18.80;44.40;;;;;;5135721;27;20043;-38
2021/04/21 03:45:32;;;;;;;2.00;1.80;;;18.80;44.40;;;;;;5135635;27;20047;-38
2021/04/21 03:47:59;;;;;;;2.17;1.83;;;18.80;44.40;;;;;;5135975;27;20462;-38
2021/04/21 03:50:28;;;;;;;2.42;2.20;;;18.80;44.40;;;;;;5134817;27;20456;-38
2021/04/21 03:53:04;;;;;;;1.98;1.80;;;18.80;44.40;;;;;;5133232;27;20078;-38
2021/04/21 03:55:33;;;;;;;2.25;1.90;;;18.80;44.40;;;;;;5132974;27;20134;-38
2021/04/21 03:58:06;;;;;;;2.35;1.98;;;18.80;44.40;;;;;;5131684;27;20065;-38
2021/04/21 04:00:36;;;;;;;2.40;1.88;;;18.80;44.40;;;;;;5123567;27;20472;-38
2021/04/21 04:03:08;;;;;;;3.00;2.05;;;18.80;44.40;;;;;;5126000;27;20127;-38
2021/04/21 04:05:51;;;;;;;2.08;1.80;;;18.80;44.40;;;;;;5134155;27;20079;-38
2021/04/21 04:08:19;;;;;;;2.67;1.90;;;18.80;44.40;;;;;;5133835;27;20043;-38
2021/04/21 04:10:51;;;;;;;2.75;2.05;;;18.80;44.40;;;;;;5132655;27;20043;-38
2021/04/21 04:13:19;;;;;;;2.80;2.05;;;18.80;44.40;;;;;;5123589;27;20079;-37
2021/04/21 04:15:51;;;;;;;1.92;1.73;;;18.80;44.40;;;;;;5116763;27;20047;-38
2021/04/21 04:18:18;;;;;;;2.45;1.98;;;18.80;44.40;;;;;;5123208;27;20042;-38
2021/04/21 04:20:48;;;;;;;2.55;1.70;;;18.80;45.00;;;;;;5127518;27;20127;-38
2021/04/21 04:23:19;;;;;;;3.25;1.67;;;18.80;44.40;;;;;;5118269;27;20404;-38
2021/04/21 04:25:50;;;;;;;2.25;2.05;;;18.80;44.40;;;;;;5118292;27;20380;-38
2021/04/21 04:28:19;;;;;;;1.55;1.42;;;18.80;44.40;;;;;;5116579;27;20096;-38
2021/04/21 04:30:46;;;;;;;2.28;2.08;;;18.80;44.40;;;;;;5120396;27;20043;-38
2021/04/21 04:33:16;;;;;;;2.70;1.75;;;18.80;44.40;;;;;;5134581;27;20039;-39
2021/04/21 04:35:43;;;;;;;2.20;1.90;;;18.80;44.40;;;;;;5130268;27;20039;-38
2021/04/21 04:38:12;;;;;;;2.90;2.03;;;18.80;44.30;;;;;;5117670;27;20043;-39
2021/04/21 04:40:39;;;;;;;2.80;2.20;;;18.80;44.40;;;;;;5116335;27;20088;-38
2021/04/21 04:43:08;;;;;;;1.92;1.70;;;18.80;44.30;;;;;;5116489;27;20061;-38
2021/04/21 04:45:38;;;;;;;2.67;1.80;;;18.80;44.30;;;;;;5131718;27;20039;-38
2021/04/21 04:48:14;;;;;;;2.03;1.83;;;18.80;44.40;;;;;;5134564;27;20491;-38
2021/04/21 04:50:47;;;;;;;2.45;1.90;;;18.80;44.40;;;;;;5115759;27;20051;-38
2021/04/21 04:53:16;;;;;;;1.77;1.65;;;18.80;44.30;;;;;;5132065;27;20071;-38
2021/04/21 04:55:44;;;;;;;2.85;1.95;;;18.80;44.30;;;;;;5117072;27;20047;-38
2021/04/21 04:58:13;;;;;;;2.17;1.85;;;18.80;44.30;;;;;;5132673;27;20100;-38
2021/04/21 05:00:44;;;;;;;2.45;1.80;;;18.80;44.30;;;;;;5133299;27;20054;-38
2021/04/21 05:03:19;;;;;;;1.95;1.63;;;18.80;44.30;;;;;;5133156;27;20058;-38
2021/04/21 05:05:46;;;;;;;2.20;1.80;;;18.80;44.30;;;;;;5133115;27;20190;-38
2021/04/21 05:08:16;;;;;;;1.83;1.60;;;18.80;44.30;;;;;;5134240;27;20046;-38
2021/04/21 05:10:54;;;;;;;2.92;1.98;;;18.80;44.30;;;;;;5133700;27;20100;-38
2021/04/21 05:13:22;;;;;;;4.18;1.98;;;18.80;44.30;;;;;;5115489;27;20079;-38
2021/04/21 05:15:52;;;;;;;1.85;1.60;;;18.80;44.30;;;;;;5115763;27;20092;-38
2021/04/21 05:18:55;;;;;;;2.95;1.95;;;18.80;44.30;;;;;;5116130;27;20051;-38
2021/04/21 05:21:46;;;;;;;2.10;1.80;;;18.80;44.30;;;;;;5116537;27;20429;-38
2021/04/21 05:24:34;;;;;;;2.63;2.05;;;18.80;44.30;;;;;;5116003;27;20491;-39
2021/04/21 05:27:26;;;;;;;2.17;1.58;;;18.80;44.30;;;;;;5130218;27;20568;-38
2021/04/21 05:30:17;;;;;;;2.17;1.88;;;18.80;44.30;;;;;;5109909;27;20055;-39
2021/04/21 05:33:21;;;;;;;2.22;2.00;;;18.80;44.30;;;;;;5133798;27;20047;-38
2021/04/21 05:36:05;;;;;;;2.40;2.00;;;18.80;44.30;;;;;;5118752;27;20048;-38
2021/04/21 05:38:56;;;;;;;3.08;2.08;;;18.80;44.30;;;;;;5128162;27;20072;-38
2021/04/21 05:41:35;;;;;;;2.35;2.00;;;18.80;44.30;;;;;;5131559;27;20047;-38
2021/04/21 05:44:26;;;;;;;2.05;1.75;;;18.80;44.30;;;;;;5132844;27;20047;-39
2021/04/21 05:47:33;;;;;;;2.33;1.80;;;18.80;44.30;;;;;;5132503;27;20574;-38
2021/04/21 05:50:14;;;;;;;1.70;1.60;;;18.80;44.30;;;;;;5116664;27;20470;-38
2021/04/21 05:52:59;;;;;;;2.15;1.90;;;18.80;44.30;;;;;;5130737;27;20047;-38
2021/04/21 05:55:49;;;;;;;2.15;1.95;;;18.80;44.30;;;;;;5133064;27;20088;-39
2021/04/21 05:58:49;;;;;;;2.28;1.60;;;18.80;44.30;;;;;;5131971;27;20047;-39
2021/04/21 06:01:22;;;;;;;2.20;2.00;;;18.80;44.30;;;;;;5131728;27;20047;-39
2021/04/21 06:03:56;;;;;;;1.95;1.73;;;18.80;44.30;;;;;;5132980;27;20074;-38
2021/04/21 06:06:24;;;;;;;2.05;1.85;;;18.80;44.30;;;;;;5121306;27;20051;-41
2021/04/21 06:08:51;;;;;;;1.95;1.75;;;18.80;44.30;;;;;;5115898;27;20048;-39
2021/04/21 06:11:27;;;;;;;1.63;1.50;;;18.80;44.30;;;;;;5114851;27;20511;-39
2021/04/21 06:14:04;;;;;;;2.08;1.77;;;18.80;44.90;;;;;;5104138;28;20047;-39
2021/04/21 06:16:33;;;;;;;2.88;1.92;;;18.80;44.30;;;;;;5102806;28;20051;-39
2021/04/21 06:19:08;;;;;;;2.75;1.88;;;18.80;44.30;;;;;;5115971;27;20057;-39
2021/04/21 06:21:39;;;;;;;2.35;1.98;;;18.80;44.20;;;;;;5125019;27;20520;-38
2021/04/21 06:24:22;;;;;;;2.35;2.03;;;18.90;44.40;;;;;;5131964;27;20043;-38
2021/04/21 06:26:48;;;;;;;2.40;1.90;;;18.80;44.20;;;;;;5131574;27;20059;-38
2021/04/21 06:29:16;;;;;;;2.10;1.90;;;18.80;44.30;;;;;;5129985;27;20047;-39
2021/04/21 06:31:45;;;;;;;1.88;1.50;;;18.80;44.30;;;;;;5132346;28;20047;-39
2021/04/21 06:34:14;;;;;;;2.45;1.90;;;18.80;44.20;;;;;;5131172;28;20088;-38
2021/04/21 06:36:47;;;;;;;3.10;1.90;;;18.80;44.20;;;;;;5128486;28;20043;-39
2021/04/21 06:39:17;;;;;;;2.28;1.90;;;18.80;44.20;;;;;;5132571;28;20507;-39
2021/04/21 06:41:44;;;;;;;2.47;1.90;;;18.90;44.30;;;;;;5131701;28;20056;-38
2021/04/21 06:44:14;;;;;;;2.17;1.95;;;18.80;44.20;;;;;;5130346;28;20107;-38
2021/04/21 06:46:41;;;;;;;1.80;1.67;;;18.90;44.30;;;;;;5131379;28;20092;-38
2021/04/21 06:49:08;;;;;;;2.72;2.10;;;18.90;44.30;;;;;;5112919;28;20049;-38
2021/04/21 06:51:36;;;;;;;2.25;1.80;;;18.90;44.20;;;;;;5132122;27;20487;-38
2021/04/21 06:54:07;;;;;;;2.28;2.08;;;18.80;44.20;;;;;;5135410;27;20084;-38
2021/04/21 06:56:35;;;;;;;2.88;2.20;;;18.90;44.20;;;;;;5134795;27;20119;-38
2021/04/21 06:59:03;;;;;;;2.40;2.03;;;18.90;44.20;;;;;;5136397;27;20114;-39
2021/04/21 07:01:31;;;;;;;2.00;1.80;;;18.90;44.20;;;;;;5119015;27;20077;-38
2021/04/21 07:04:10;;;;;;;2.53;2.00;;;18.90;44.20;;;;;;5117411;27;20439;-38
2021/04/21 07:06:38;;;;;;;2.22;1.80;;;18.90;44.20;;;;;;5117590;27;20052;-38
2021/04/21 07:09:16;;;;;;;2.05;1.80;;;18.90;44.20;;;;;;5118055;27;20043;-39
2021/04/21 07:11:44;;;;;;;2.60;2.20;;;18.90;44.20;;;;;;5117141;27;20079;-38
2021/04/21 07:14:12;;;;;;;1.98;1.77;;;18.90;44.20;;;;;;5135308;27;20051;-38
2021/04/21 07:16:40;;;;;;;1.77;1.67;;;18.90;44.20;;;;;;5135990;27;20432;-39
2021/04/21 07:19:12;;;;;;;2.03;1.80;;;18.90;44.20;;;;;;5133998;27;20486;-39
2021/04/21 07:21:41;;;;;;;1.98;1.80;;;18.90;44.20;;;;;;5118847;27;20047;-39
2021/04/21 07:24:11;;;;;;;2.20;1.80;;;18.90;44.20;;;;;;5134121;27;20058;-38
2021/04/21 07:26:46;;;;;;;2.05;1.60;;;18.90;44.20;;;;;;5133415;27;20062;-39
2021/04/21 07:29:24;;;;;;;2.28;1.83;;;18.90;44.80;;;;;;5133204;27;20055;-39
2021/04/21 07:31:52;;;;;;;1.88;1.73;;;18.90;44.20;;;;;;5101112;27;20070;-39
2021/04/21 07:34:31;;;;;;;2.78;2.10;;;18.90;44.20;;;;;;5133348;27;20050;-39
2021/04/21 07:36:59;;;;;;;2.47;1.90;;;18.90;44.20;;;;;;5135994;27;20495;-39
2021/04/21 07:39:38;;;;;;;2.92;2.17;;;18.90;44.20;;;;;;5133238;27;20096;-39
2021/04/21 07:42:18;;;;;;;2.35;1.92;;;18.90;44.80;;;;;;5135005;27;20130;-52
2021/04/21 07:44:53;;;;;;;2.25;1.95;;;18.90;44.20;;;;;;5117603;27;20127;-50
2021/04/21 07:47:25;;;;;;;2.42;2.10;;;18.90;44.20;;;;;;5118097;27;20047;-50
2021/04/21 07:50:01;;;;;;;2.05;1.85;;;18.90;44.20;;;;;;5133458;27;20047;-50
2021/04/21 07:52:35;;;;;;;2.28;1.80;;;18.90;44.20;;;;;;5134288;27;20414;-52
2021/04/21 07:55:17;;;;;;;2.35;1.98;;;18.90;44.20;;;;;;5136023;27;20047;-52
2021/04/21 07:58:00;;;;;;;2.88;2.08;;;18.90;44.20;;;;;;5133630;27;20445;-48
2021/04/21 08:00:29;;;;;;;2.42;1.90;;;18.90;44.20;;;;;;5134189;27;20444;-49
2021/04/21 08:02:57;;;;;;;2.55;2.10;;;18.90;44.20;;;;;;5134538;27;20043;-54
2021/04/21 08:05:24;;;;;;;2.63;2.25;;;18.90;44.20;;;;;;5134842;27;20436;-48
2021/04/21 08:07:59;;;;;;;2.25;2.05;;;18.90;44.20;;;;;;5133807;27;20058;-48
2021/04/21 08:10:28;;;;;;;2.80;2.25;;;18.90;44.20;;;;;;5134403;27;20047;-48
2021/04/21 08:12:58;;;;;;;2.53;1.98;;;18.90;44.20;;;;;;5135343;27;20088;-48
2021/04/21 08:15:43;;;;;;;2.10;1.90;;;18.90;44.20;;;;;;5133739;27;20058;-48
2021/04/21 08:18:12;;;;;;;2.38;2.10;;;18.90;44.20;;;;;;5133294;27;20115;-48
2021/04/21 08:20:43;;;;;;;2.08;1.88;;;18.90;44.20;;;;;;5095606;28;20540;-48
2021/04/21 08:23:31;;;;;;;2.70;2.30;;;18.90;44.20;;;;;;5116356;27;20092;-53
2021/04/21 08:25:58;;;;;;;2.83;2.05;;;18.90;44.20;;;;;;5115628;27;20122;-48
2021/04/21 08:28:25;;;;;;;2.72;2.08;;;18.90;44.30;;;;;;5116602;27;20097;-51
2021/04/21 08:30:54;;;;;;;3.03;2.10;;;19.00;44.40;;;;;;5134781;27;20486;-49
2021/04/21 08:33:21;;;;;;;2.50;2.08;;;19.00;44.30;;;;;;5116872;27;20216;-50
2021/04/21 08:35:47;;;;;;;2.58;2.20;;;19.00;44.40;;;;;;5127464;27;20043;-55
2021/04/21 08:38:15;;;;;;;2.45;2.03;;;19.00;44.40;;;;;;5120620;27;20047;-54
2021/04/21 08:40:42;;;;;;;2.35;1.92;;;19.00;44.40;;;;;;5128573;27;20039;-55
2021/04/21 08:43:10;;;;;;;2.70;2.10;;;19.00;44.40;;;;;;5120674;27;20079;-55
2021/04/21 08:45:37;;;;;;;2.40;2.00;;;19.00;44.40;;;;;;5126592;27;20054;-51
2021/04/21 08:48:04;;;;;;;3.20;2.28;;;19.00;44.40;;;;;;5122899;27;20044;-55
2021/04/21 08:50:35;;;;;;;2.70;2.08;;;19.00;44.40;;;;;;5124990;27;20058;-51
2021/04/21 08:53:08;;;;;;;3.03;2.00;;;19.00;44.40;;;;;;5132953;27;20040;-50
2021/04/21 08:55:37;;;;;;;2.17;1.80;;;19.00;44.40;;;;;;5113948;27;20072;-53
2021/04/21 08:58:04;;;;;;;2.50;2.00;;;19.00;44.40;;;;;;5132793;27;20287;-53
2021/04/21 09:00:31;;;;;;;2.97;2.10;;;19.00;44.40;;;;;;5132015;27;20055;-47
2021/04/21 09:03:01;;;;;;;2.00;1.80;;;19.00;44.40;;;;;;5134089;27;20088;-47
2021/04/21 09:05:28;;;;;;;3.08;1.95;;;19.00;44.40;;;;;;5133285;27;20043;-51
2021/04/21 09:07:55;;;;;;;2.13;1.92;;;19.00;44.40;;;;;;5131774;27;20092;-46
2021/04/21 09:10:22;;;;;;;3.55;2.20;;;19.00;44.40;;;;;;5133992;27;20456;-51
2021/04/21 09:12:48;;;;;;;2.85;2.22;;;19.00;44.40;;;;;;5131694;27;20051;-47
2021/04/21 09:15:17;;;;;;;3.00;1.90;;;19.00;44.40;;;;;;5133609;27;20087;-47
2021/04/21 09:17:52;;;;;;;2.45;1.80;;;19.00;44.40;;;;;;5133725;27;20043;-50
2021/04/21 09:20:23;;;;;;;2.45;1.83;;;19.00;44.40;;;;;;5132615;27;20068;-48
2021/04/21 09:23:06;;;;;;;2.22;1.95;;;19.00;44.40;;;;;;5116714;27;20043;-50
2021/04/21 09:25:38;;;;;;;2.10;1.80;;;19.00;44.40;;;;;;5116671;27;20555;-51
2021/04/21 09:28:06;;;;;;;2.83;1.98;;;19.00;44.50;;;;;;5118340;27;20134;-52
2021/04/21 09:30:36;;;;;;;1.95;1.75;;;19.00;44.50;;;;;;5132753;27;20075;-51
2021/04/21 09:33:04;;;;;;;2.30;1.90;;;19.00;44.50;;;;;;5115369;27;20089;-49
2021/04/21 09:35:43;;;;;;;2.65;2.08;;;19.00;44.50;;;;;;5121839;27;20041;-49
2021/04/21 09:38:27;;;;;;;2.45;2.08;;;19.00;44.50;;;;;;5114120;27;20073;-48
2021/04/21 09:40:58;;;;;;;2.58;1.90;;;19.00;44.50;;;;;;5133796;27;21261;-52
2021/04/21 09:43:29;;;;;;;2.10;1.90;;;19.00;44.50;;;;;;5130679;27;20072;-49
2021/04/21 09:45:58;;;;;;;2.33;1.83;;;19.00;44.50;;;;;;5112866;27;20058;-49
2021/04/21 09:48:33;;;;;;;2.20;1.90;;;19.00;44.50;;;;;;5131049;27;20046;-49
2021/04/21 09:51:01;;;;;;;2.70;1.83;;;19.00;44.50;;;;;;5113997;27;20040;-53
2021/04/21 09:53:32;;;;;;;2.92;1.95;;;19.10;44.60;;;;;;5130142;27;20071;-51
2021/04/21 09:56:04;;;;;;;2.50;2.20;;;19.10;44.60;;;;;;5113928;27;20118;-50
2021/04/21 09:58:36;;;;;;;2.10;1.75;;;19.00;44.60;;;;;;5131533;27;20490;-52
2021/04/21 10:01:27;;;;;;;1.95;1.67;;;19.00;44.60;;;;;;5131689;27;20055;-52
2021/04/21 10:04:16;;;;;;;2.33;1.90;;;19.00;44.60;;;;;;5115920;27;20473;-51
2021/04/21 10:06:50;;;;;;;1.90;1.75;;;19.00;44.60;;;;;;5132815;27;20043;-52
2021/04/21 10:09:59;;;;;;;2.33;1.88;;;19.10;44.70;;;;;;5128787;27;20047;-51
2021/04/21 10:12:32;;;;;;;2.75;1.85;;;19.10;44.70;;;;;;5123230;27;20131;-51
2021/04/21 10:15:09;;;;;;;2.58;1.73;;;19.00;44.60;;;;;;5111169;28;20155;-52
2021/04/21 10:17:41;;;;;;;2.15;1.70;;;19.10;44.70;;;;;;5116051;27;20047;-51
2021/04/21 10:20:13;;;;;;;1.90;1.70;;;19.10;44.70;;;;;;5115978;27;20040;-54
2021/04/21 10:22:41;;;;;;;2.50;1.77;;;19.00;44.70;;;;;;5122003;27;20051;-53
2021/04/21 10:25:11;;;;;;;2.38;1.88;;;19.00;44.60;;;;;;5124707;27;20047;-39
2021/04/21 10:27:38;;;;;;;1.83;1.73;;;19.00;44.60;;;;;;5114138;28;20403;-38
2021/04/21 10:30:07;;;;;;;1.95;1.77;;;19.10;44.70;;;;;;5120870;27;20437;-39
2021/04/21 10:32:36;;;;;;;2.10;1.85;;;19.10;44.70;;;;;;5131642;28;20521;-39
2021/04/21 10:35:04;;;;;;;2.92;1.80;;;19.10;44.70;;;;;;5132510;28;20112;-39
2021/04/21 10:37:35;;;;;;;2.78;2.05;;;19.10;44.80;;;;;;5132506;28;20096;-39
2021/04/21 10:40:04;;;;;;;2.70;2.10;;;19.10;44.80;;;;;;5131471;28;20043;-39
2021/04/21 10:43:04;;;;;;;2.95;2.10;;;19.10;44.80;;;;;;5130160;28;20108;-38
2021/04/21 10:45:32;;;;;;;2.05;1.80;;;19.10;44.80;;;;;;5129990;28;20047;-39
2021/04/21 10:48:00;;;;;;;2.08;1.70;;;19.10;44.80;;;;;;5130674;28;20092;-39
2021/04/21 10:50:43;;;;;;;1.75;1.60;;;19.10;44.80;;;;;;5129909;28;20051;-39
2021/04/21 10:53:27;;;;;;;2.55;1.90;;;19.10;44.80;;;;;;5130133;28;20043;-38
2021/04/21 10:55:54;;;;;;;3.35;2.08;;;19.10;44.80;;;;;;5129743;28;20039;-40
2021/04/21 10:58:21;;;;;;;1.83;1.73;;;19.10;44.80;;;;;;5131457;28;20097;-39
2021/04/21 11:00:50;;;;;;;1.88;1.63;;;19.10;44.80;;;;;;5132181;28;20433;-38
2021/04/21 11:03:27;;;;;;;2.25;2.00;;;19.10;44.80;;;;;;5130872;28;20048;-38
2021/04/21 11:06:02;;;;;;;2.25;1.83;;;19.10;44.80;;;;;;5112078;28;20078;-39
2021/04/21 11:08:50;;;;;;;2.10;1.77;;;19.10;44.80;;;;;;5127298;28;20082;-39
2021/04/21 11:11:32;;;;;;;2.60;2.00;;;19.10;44.80;;;;;;5115639;28;20044;-38
2021/04/21 11:13:59;;;;;;;2.40;1.88;;;19.10;44.80;;;;;;5121502;28;20061;-39
2021/04/21 11:16:31;;;;;;;1.90;1.80;;;19.10;44.80;;;;;;5124595;28;20043;-39
2021/04/21 11:19:17;;;;;;;2.67;1.95;;;19.10;45.50;;;;;;5118880;28;20498;-39
2021/04/21 11:21:44;;;;;;;1.83;1.70;;;19.10;44.80;;;;;;5129910;28;20505;-38
2021/04/21 11:24:12;;;;;;;2.63;1.90;;;19.10;45.40;;;;;;5129906;28;20043;-38
2021/04/21 11:26:40;;;;;;;2.75;2.08;;;19.10;44.80;;;;;;5113848;28;20539;-38
2021/04/21 11:29:07;;;;;;;2.58;1.90;;;19.10;44.80;;;;;;5129817;28;20070;-38
2021/04/21 11:31:43;;;;;;;1.95;1.73;;;19.10;44.80;;;;;;5129457;28;20047;-38
2021/04/21 11:34:15;;;;;;;2.78;2.33;;;19.10;44.80;;;;;;5132222;28;20043;-38
2021/04/21 11:36:49;;;;;;;2.83;2.05;;;19.10;44.80;;;;;;5117494;28;20035;-39
2021/04/21 11:42:37;;;;;;;2.15;1.73;;;19.10;44.80;;;;;;5120174;27;20043;-38
2021/04/21 11:45:19;;;;;;;2.45;1.90;;;19.10;44.80;;;;;;5114948;27;20047;-38
2021/04/21 11:48:00;;;;;;;1.88;1.60;;;19.10;44.80;;;;;;5133096;27;20520;-39
2021/04/21 11:50:30;;;;;;;2.20;1.77;;;19.10;44.80;;;;;;5134321;27;20043;-39
2021/04/21 11:53:00;;;;;;;1.88;1.65;;;19.10;44.80;;;;;;5134166;27;20507;-39
2021/04/21 11:55:31;;;;;;;2.58;1.80;;;19.10;44.80;;;;;;5132934;27;20079;-39
2021/04/21 11:58:03;;;;;;;2.10;1.80;;;19.10;44.80;;;;;;5135373;27;20130;-39
2021/04/21 12:00:37;;;;;;;2.75;1.92;;;19.10;44.80;;;;;;5125197;27;20047;-40
2021/04/21 12:03:26;;;;;;;1.73;1.63;;;19.10;44.80;;;;;;5126199;27;20384;-39
2021/04/21 12:05:56;;;;;;;3.47;1.60;;;19.10;44.80;;;;;;5106565;28;20047;-38
2021/04/21 12:08:29;;;;;;;2.08;1.88;;;19.10;44.80;;;;;;5130226;27;20092;-41
2021/04/21 12:10:57;;;;;;;2.00;1.80;;;19.10;44.80;;;;;;5122155;27;20055;-39
2021/04/21 12:13:35;;;;;;;1.90;1.70;;;19.10;44.80;;;;;;5116908;27;20040;-39
2021/04/21 12:16:18;;;;;;;2.00;1.75;;;19.10;44.80;;;;;;5127013;27;20043;-39
2021/04/21 12:18:52;;;;;;;2.60;1.73;;;19.10;44.80;;;;;;5132391;27;20495;-39
2021/04/21 12:21:26;;;;;;;2.05;1.80;;;19.10;44.80;;;;;;5122450;27;20538;-39
2021/04/21 12:24:07;;;;;;;2.20;1.77;;;19.10;44.80;;;;;;5128182;27;20055;-39
2021/04/21 12:26:42;;;;;;;3.42;1.67;;;19.10;44.80;;;;;;5132440;27;20411;-39
2021/04/21 12:29:12;;;;;;;2.35;2.08;;;19.10;44.80;;;;;;5132396;27;20039;-39
2021/04/21 12:31:40;;;;;;;2.65;1.80;;;19.10;44.80;;;;;;5132019;27;20043;-38
2021/04/21 12:34:16;;;;;;;2.22;1.90;;;19.10;44.80;;;;;;5132315;27;20051;-39
2021/04/21 12:36:43;;;;;;;2.20;1.88;;;19.10;44.80;;;;;;5128568;27;20050;-39
2021/04/21 12:39:25;;;;;;;2.63;2.25;;;19.10;44.80;;;;;;5132175;27;20054;-41
2021/04/21 12:41:55;;;;;;;2.13;1.92;;;19.10;44.80;;;;;;5132617;27;20470;-39
2021/04/21 12:44:40;;;;;;;2.30;1.80;;;19.10;44.80;;;;;;5114914;27;20202;-40
2021/04/21 12:47:10;;;;;;;2.83;2.00;;;19.10;44.80;;;;;;5131826;27;20051;-39
2021/04/21 12:49:42;;;;;;;1.92;1.70;;;19.10;44.80;;;;;;5115110;27;20050;-39
2021/04/21 12:52:17;;;;;;;1.98;1.77;;;19.10;44.80;;;;;;5132023;27;20115;-40
2021/04/21 12:54:47;;;;;;;2.08;1.80;;;19.10;44.80;;;;;;5121025;27;20140;-39
2021/04/21 12:57:18;;;;;;;2.35;2.10;;;19.10;44.80;;;;;;5128197;27;20442;-39
2021/04/21 12:59:47;;;;;;;2.17;1.98;;;19.10;44.70;;;;;;5120859;27;20070;-38
2021/04/21 13:02:16;;;;;;;2.22;1.83;;;19.10;44.80;;;;;;5117469;27;20131;-40
2021/04/21 13:04:46;;;;;;;2.75;2.15;;;19.10;44.70;;;;;;5117609;27;20047;-40
2021/04/21 13:07:13;;;;;;;1.98;1.77;;;19.10;44.70;;;;;;5127461;27;20069;-40
2021/04/21 13:09:40;;;;;;;3.03;2.13;;;19.10;44.70;;;;;;5125335;27;20387;-39
2021/04/21 13:12:10;;;;;;;2.75;1.85;;;19.10;44.80;;;;;;5124010;27;20047;-39
2021/04/21 13:14:46;;;;;;;1.80;1.50;;;19.10;44.70;;;;;;5133930;27;20417;-39
2021/04/21 13:17:14;;;;;;;2.15;1.80;;;19.10;44.70;;;;;;5131708;27;20511;-39
2021/04/21 13:19:55;;;;;;;2.20;1.75;;;19.10;44.70;;;;;;5131251;27;20047;-39
2021/04/21 13:22:29;;;;;;;2.03;1.83;;;19.10;44.70;;;;;;5131714;27;20100;-39
2021/04/21 13:24:58;;;;;;;2.50;2.10;;;19.10;44.70;;;;;;5133812;27;20052;-39
2021/04/21 13:27:33;;;;;;;2.63;1.80;;;19.10;44.70;;;;;;5133460;27;20043;-39
2021/04/21 13:30:14;;;;;;;1.92;1.73;;;19.10;44.70;;;;;;5130952;27;20130;-38